Time;durP1;ratioP1;P1;durP2;ratioP2;P2;SDS_P1;SDS_P2;PMS_P1;PMS_P2;Temp;Humidity;BMP_temperature;BMP_pressure;BME280_temperature;BME280_humidity;BME280_pressure;Samples;Min_cycle;Max_cycle;Signal;HPM_P1;HPM_P2
2023/07/03 00:00:42;;;;;;;28.95;20.13;;;;;;;;;;5005423;28;20040;-79
2023/07/03 00:03:08;;;;;;;26.83;19.60;;;;;;;;;;5038074;28;20466;-79
2023/07/03 00:05:35;;;;;;;27.25;20.38;;;;;;;;;;5021980;28;20029;-79
2023/07/03 00:08:00;;;;;;;23.95;19.00;;;;;;;;;;5022901;28;20029;-80
2023/07/03 00:10:25;;;;;;;26.25;19.00;;;;;;;;;;5021415;28;20032;-80
2023/07/03 00:12:51;;;;;;;25.00;19.13;;;;;;;;;;5056010;28;20027;-80
2023/07/03 00:15:17;;;;;;;26.42;18.38;;;;;;;;;;5038010;28;20021;-80
2023/07/03 00:17:45;;;;;;;27.77;19.67;;;;;;;;;;5037626;28;20353;-79
2023/07/03 00:20:13;;;;;;;26.48;19.67;;;;;;;;;;5038015;28;20029;-79
2023/07/03 00:22:40;;;;;;;25.15;19.23;;;;;;;;;;5037832;28;20074;-79
2023/07/03 00:25:06;;;;;;;31.13;18.80;;;;;;;;;;5021831;28;20349;-80
2023/07/03 00:27:32;;;;;;;23.42;18.60;;;;;;;;;;5039300;28;20524;-80
2023/07/03 00:29:57;;;;;;;25.52;18.52;;;;;;;;;;5055396;28;20025;-80
2023/07/03 00:32:23;;;;;;;26.77;19.20;;;;;;;;;;5055224;28;20036;-80
2023/07/03 00:34:48;;;;;;;24.58;18.20;;;;;;;;;;5037436;28;20021;-80
2023/07/03 00:37:15;;;;;;;24.88;18.63;;;;;;;;;;5054853;28;20122;-80
2023/07/03 00:39:40;;;;;;;24.92;18.30;;;;;;;;;;5037428;28;20029;-79
2023/07/03 00:42:06;;;;;;;29.05;19.13;;;;;;;;;;5020939;28;20029;-81
2023/07/03 00:44:31;;;;;;;25.60;18.55;;;;;;;;;;5020003;28;20112;-80
2023/07/03 00:46:57;;;;;;;29.45;19.13;;;;;;;;;;5022376;28;20029;-81
2023/07/03 00:49:23;;;;;;;26.27;18.83;;;;;;;;;;5020769;28;20031;-81
2023/07/03 00:51:55;;;;;;;27.98;18.50;;;;;;;;;;5020285;28;20041;-81
2023/07/03 00:54:21;;;;;;;21.65;17.58;;;;;;;;;;5020535;28;20053;-81
2023/07/03 00:56:47;;;;;;;24.27;18.05;;;;;;;;;;5020561;28;20032;-81
2023/07/03 00:59:12;;;;;;;24.38;17.75;;;;;;;;;;5036981;28;20128;-81
2023/07/03 01:02:03;;;;;;;25.05;17.83;;;;;;;;;;5020811;28;20027;-80
2023/07/03 01:04:34;;;;;;;23.88;17.98;;;;;;;;;;5055987;28;20024;-80
2023/07/03 01:07:06;;;;;;;25.45;17.90;;;;;;;;;;5011699;28;20047;-81
2023/07/03 01:09:41;;;;;;;22.50;17.42;;;;;;;;;;5021255;28;20376;-81
2023/07/03 01:12:07;;;;;;;23.42;16.75;;;;;;;;;;5021206;28;20029;-80
2023/07/03 01:14:32;;;;;;;22.65;17.10;;;;;;;;;;5058465;28;20040;-81
2023/07/03 01:16:57;;;;;;;24.38;17.25;;;;;;;;;;5040837;28;20071;-80
2023/07/03 01:19:29;;;;;;;24.48;17.15;;;;;;;;;;5037463;28;20039;-80
2023/07/03 01:22:10;;;;;;;24.48;17.17;;;;;;;;;;5014816;28;20025;-81
2023/07/03 01:24:40;;;;;;;22.08;16.92;;;;;;;;;;5068159;28;20037;-81
2023/07/03 01:27:05;;;;;;;22.35;16.60;;;;;;;;;;5039830;28;20020;-80
2023/07/03 01:29:31;;;;;;;23.52;16.27;;;;;;;;;;5036640;28;20112;-81
2023/07/03 01:31:56;;;;;;;20.92;16.02;;;;;;;;;;5020328;28;20432;-81
2023/07/03 01:34:22;;;;;;;23.73;15.95;;;;;;;;;;5036706;28;20036;-80
2023/07/03 01:36:47;;;;;;;22.50;16.67;;;;;;;;;;5035998;28;20032;-80
2023/07/03 01:39:12;;;;;;;23.33;16.52;;;;;;;;;;5003449;28;20086;-80
2023/07/03 01:41:38;;;;;;;21.80;16.52;;;;;;;;;;5020175;28;20028;-80
2023/07/03 01:44:03;;;;;;;21.90;16.70;;;;;;;;;;5036152;28;20383;-81
2023/07/03 01:46:29;;;;;;;21.25;16.25;;;;;;;;;;5054779;28;20531;-81
2023/07/03 01:48:54;;;;;;;21.15;15.70;;;;;;;;;;5037338;28;20032;-81
2023/07/03 01:51:36;;;;;;;23.45;16.13;;;;;;;;;;5036249;28;20436;-80
2023/07/03 01:54:09;;;;;;;24.38;16.60;;;;;;;;;;5003989;28;20032;-81
2023/07/03 01:56:37;;;;;;;21.77;15.77;;;;;;;;;;5004469;28;20032;-80
2023/07/03 01:59:07;;;;;;;21.40;15.75;;;;;;;;;;5020207;28;20032;-80
2023/07/03 02:01:52;;;;;;;24.60;15.70;;;;;;;;;;5020659;28;20053;-80
2023/07/03 02:04:33;;;;;;;20.85;15.10;;;;;;;;;;5035909;28;20025;-81
2023/07/03 02:06:59;;;;;;;23.38;16.05;;;;;;;;;;5020969;28;20036;-80
2023/07/03 02:09:24;;;;;;;23.52;15.85;;;;;;;;;;5020261;28;20345;-81
2023/07/03 02:11:51;;;;;;;21.50;15.20;;;;;;;;;;5035909;28;20025;-80
2023/07/03 02:14:17;;;;;;;22.60;15.55;;;;;;;;;;5019538;28;20029;-81
2023/07/03 02:16:44;;;;;;;20.17;15.35;;;;;;;;;;5020204;28;20040;-81
2023/07/03 02:19:10;;;;;;;21.55;15.27;;;;;;;;;;5020030;28;20033;-81
2023/07/03 02:21:36;;;;;;;20.25;15.13;;;;;;;;;;5019899;28;20033;-81
2023/07/03 02:24:02;;;;;;;21.45;14.90;;;;;;;;;;5035868;28;20079;-80
2023/07/03 02:26:28;;;;;;;23.75;14.45;;;;;;;;;;5036090;28;20040;-81
2023/07/03 02:28:53;;;;;;;20.38;15.27;;;;;;;;;;5020325;28;20337;-81
2023/07/03 02:31:19;;;;;;;21.80;14.32;;;;;;;;;;5036131;28;20028;-81
2023/07/03 02:33:44;;;;;;;20.50;14.75;;;;;;;;;;5036034;28;20017;-81
2023/07/03 02:36:10;;;;;;;21.70;14.88;;;;;;;;;;5019319;28;20021;-81
2023/07/03 02:38:35;;;;;;;21.67;14.15;;;;;;;;;;5035608;28;20383;-81
2023/07/03 02:41:02;;;;;;;19.88;14.48;;;;;;;;;;5053983;28;20029;-80
2023/07/03 02:43:28;;;;;;;22.33;13.98;;;;;;;;;;5036408;28;20523;-81
2023/07/03 02:45:53;;;;;;;23.73;14.00;;;;;;;;;;5055163;28;20109;-80
2023/07/03 02:48:19;;;;;;;21.00;14.05;;;;;;;;;;5053969;28;20036;-82
2023/07/03 02:50:44;;;;;;;20.33;14.63;;;;;;;;;;5038044;28;20120;-81
2023/07/03 02:53:10;;;;;;;22.88;14.80;;;;;;;;;;5023338;28;20036;-81
2023/07/03 02:55:35;;;;;;;22.30;14.48;;;;;;;;;;5045082;28;20049;-80
2023/07/03 02:58:01;;;;;;;19.67;14.40;;;;;;;;;;5057732;28;20043;-80
2023/07/03 03:00:27;;;;;;;20.60;14.65;;;;;;;;;;5039086;28;20076;-81
2023/07/03 03:02:53;;;;;;;20.73;14.77;;;;;;;;;;5019528;28;20120;-80
2023/07/03 03:05:19;;;;;;;19.60;14.73;;;;;;;;;;5055480;28;20475;-81
2023/07/03 03:07:44;;;;;;;22.42;14.40;;;;;;;;;;5056824;28;20151;-81
2023/07/03 03:10:10;;;;;;;19.35;14.68;;;;;;;;;;5039155;28;20432;-81
2023/07/03 03:12:35;;;;;;;22.63;14.52;;;;;;;;;;5039141;28;20037;-80
2023/07/03 03:15:01;;;;;;;22.02;14.70;;;;;;;;;;5039240;28;20435;-81
2023/07/03 03:17:26;;;;;;;23.38;15.55;;;;;;;;;;5022641;28;20037;-81
2023/07/03 03:19:51;;;;;;;27.08;15.82;;;;;;;;;;5056739;28;20114;-80
2023/07/03 03:22:17;;;;;;;21.02;14.73;;;;;;;;;;5056774;28;20025;-81
2023/07/03 03:24:43;;;;;;;21.65;14.90;;;;;;;;;;5038945;28;20033;-80
2023/07/03 03:27:08;;;;;;;24.70;15.38;;;;;;;;;;5023259;28;20036;-81
2023/07/03 03:29:34;;;;;;;23.17;14.82;;;;;;;;;;5038761;28;20452;-81
2023/07/03 03:32:00;;;;;;;23.33;15.32;;;;;;;;;;5022103;28;20075;-81
2023/07/03 03:34:25;;;;;;;23.55;16.30;;;;;;;;;;5038777;28;20025;-80
2023/07/03 03:36:50;;;;;;;22.23;14.77;;;;;;;;;;5056367;28;20029;-81
2023/07/03 03:39:16;;;;;;;18.13;13.82;;;;;;;;;;5038576;28;20033;-81
2023/07/03 03:41:41;;;;;;;23.80;14.60;;;;;;;;;;5038627;28;20044;-80
2023/07/03 03:44:07;;;;;;;27.90;14.50;;;;;;;;;;5039004;28;20422;-81
2023/07/03 03:46:32;;;;;;;19.25;13.98;;;;;;;;;;5056936;28;20029;-81
2023/07/03 03:48:58;;;;;;;23.90;13.40;;;;;;;;;;5056139;28;20029;-81
2023/07/03 03:51:23;;;;;;;20.52;14.30;;;;;;;;;;5022049;28;20025;-81
2023/07/03 03:53:48;;;;;;;21.63;14.43;;;;;;;;;;5055915;28;20388;-81
2023/07/03 03:56:14;;;;;;;21.30;13.88;;;;;;;;;;5038424;28;20522;-81
2023/07/03 03:58:40;;;;;;;18.23;12.85;;;;;;;;;;5038440;28;20037;-81
2023/07/03 04:01:05;;;;;;;22.00;13.55;;;;;;;;;;5038046;28;20127;-81
2023/07/03 04:03:30;;;;;;;27.45;13.93;;;;;;;;;;5038099;28;20056;-80
2023/07/03 04:05:56;;;;;;;25.83;14.05;;;;;;;;;;5056480;28;20052;-81
2023/07/03 04:08:21;;;;;;;19.95;13.73;;;;;;;;;;5056090;28;20368;-81
2023/07/03 04:10:47;;;;;;;18.92;13.45;;;;;;;;;;5055758;28;20463;-80
2023/07/03 04:13:12;;;;;;;21.75;13.57;;;;;;;;;;5037923;28;20360;-81
2023/07/03 04:15:51;;;;;;;26.27;14.65;;;;;;;;;;5055621;28;20075;-80
2023/07/03 04:18:17;;;;;;;21.90;13.27;;;;;;;;;;5006179;28;20033;-81
2023/07/03 04:20:43;;;;;;;19.35;13.48;;;;;;;;;;5055614;28;20480;-80
2023/07/03 04:23:08;;;;;;;17.83;12.52;;;;;;;;;;5005144;28;20083;-80
2023/07/03 04:25:34;;;;;;;19.88;12.40;;;;;;;;;;5055936;28;20368;-81
2023/07/03 04:27:59;;;;;;;18.13;12.52;;;;;;;;;;5038055;28;20440;-80
2023/07/03 04:30:24;;;;;;;22.63;11.70;;;;;;;;;;5037361;28;20028;-81
2023/07/03 04:32:53;;;;;;;15.23;11.25;;;;;;;;;;5037698;28;20028;-81
2023/07/03 04:35:19;;;;;;;19.30;11.68;;;;;;;;;;5038489;28;20119;-81
2023/07/03 04:37:45;;;;;;;16.85;11.75;;;;;;;;;;5037482;28;20060;-81
2023/07/03 04:40:12;;;;;;;17.02;11.82;;;;;;;;;;5037533;28;20107;-80
2023/07/03 04:42:37;;;;;;;15.60;11.23;;;;;;;;;;5037334;28;20036;-80
2023/07/03 04:45:04;;;;;;;15.60;11.48;;;;;;;;;;5054874;28;20032;-80
2023/07/03 04:47:29;;;;;;;18.35;10.95;;;;;;;;;;5056164;28;20025;-81
2023/07/03 04:49:58;;;;;;;17.77;10.93;;;;;;;;;;5037228;28;20035;-81
2023/07/03 04:52:27;;;;;;;18.73;10.60;;;;;;;;;;5037417;28;20466;-81
2023/07/03 04:54:53;;;;;;;18.27;10.18;;;;;;;;;;5037844;28;20063;-81
2023/07/03 04:57:19;;;;;;;14.75;10.55;;;;;;;;;;5020415;28;20736;-81
2023/07/03 04:59:45;;;;;;;16.35;9.85;;;;;;;;;;5036816;28;20083;-82
2023/07/03 05:02:12;;;;;;;19.95;10.27;;;;;;;;;;5020798;28;20380;-82
2023/07/03 05:04:37;;;;;;;14.73;9.45;;;;;;;;;;5037214;28;20036;-81
2023/07/03 05:07:03;;;;;;;12.63;9.30;;;;;;;;;;5038102;28;20029;-82
2023/07/03 05:09:29;;;;;;;15.95;9.70;;;;;;;;;;5037230;28;20029;-81
2023/07/03 05:11:55;;;;;;;13.13;9.23;;;;;;;;;;5036772;28;20021;-82
2023/07/03 05:14:20;;;;;;;13.20;9.65;;;;;;;;;;5037075;28;20033;-82
2023/07/03 05:16:46;;;;;;;12.38;9.30;;;;;;;;;;5036598;28;20123;-81
2023/07/03 05:19:13;;;;;;;13.20;9.38;;;;;;;;;;5054589;28;20028;-81
2023/07/03 05:21:38;;;;;;;11.68;9.35;;;;;;;;;;5037154;28;20025;-80
2023/07/03 05:24:04;;;;;;;11.65;8.68;;;;;;;;;;5036912;28;20444;-79
2023/07/03 05:26:29;;;;;;;13.48;8.70;;;;;;;;;;5037045;28;20135;-80
2023/07/03 05:28:55;;;;;;;13.85;9.07;;;;;;;;;;5020195;28;20020;-80
2023/07/03 05:31:22;;;;;;;10.05;7.90;;;;;;;;;;5036619;28;20029;-81
2023/07/03 05:33:48;;;;;;;12.20;8.32;;;;;;;;;;5036789;28;20413;-81
2023/07/03 05:36:13;;;;;;;16.05;7.88;;;;;;;;;;5036548;28;20035;-81
2023/07/03 05:38:38;;;;;;;21.23;7.65;;;;;;;;;;5054101;28;20036;-80
2023/07/03 05:41:04;;;;;;;13.80;6.75;;;;;;;;;;5054633;28;20036;-81
2023/07/03 05:43:29;;;;;;;24.75;7.60;;;;;;;;;;5038981;28;20348;-83
2023/07/03 05:45:55;;;;;;;9.95;6.78;;;;;;;;;;5036447;28;20021;-85
2023/07/03 05:48:20;;;;;;;13.30;7.13;;;;;;;;;;5055074;28;20036;-82
2023/07/03 05:50:46;;;;;;;13.77;7.35;;;;;;;;;;5055280;28;20032;-84
2023/07/03 05:53:11;;;;;;;9.15;6.80;;;;;;;;;;5036255;28;20086;-83
2023/07/03 05:55:37;;;;;;;12.15;6.03;;;;;;;;;;5019645;28;20045;-84
2023/07/03 05:58:02;;;;;;;8.80;7.10;;;;;;;;;;5036057;28;20444;-85
2023/07/03 06:00:30;;;;;;;16.33;7.05;;;;;;;;;;5036755;28;20032;-85
2023/07/03 06:02:56;;;;;;;13.02;6.68;;;;;;;;;;5019800;28;20029;-85
2023/07/03 06:05:21;;;;;;;9.82;6.43;;;;;;;;;;5036498;28;20032;-83
2023/07/03 06:07:47;;;;;;;8.70;6.75;;;;;;;;;;5037029;28;20032;-83
2023/07/03 06:10:12;;;;;;;8.10;6.30;;;;;;;;;;5036346;28;20087;-87
2023/07/03 06:12:39;;;;;;;12.90;6.18;;;;;;;;;;5036565;28;20032;-85
2023/07/03 06:15:05;;;;;;;11.85;5.40;;;;;;;;;;5019677;28;20032;-82
2023/07/03 06:17:31;;;;;;;9.20;5.20;;;;;;;;;;5053866;28;20064;-85
2023/07/03 06:19:56;;;;;;;9.05;5.38;;;;;;;;;;5019764;28;20024;-87
2023/07/03 06:22:22;;;;;;;13.07;6.13;;;;;;;;;;5055264;28;20032;-86
2023/07/03 06:24:47;;;;;;;7.68;5.50;;;;;;;;;;5054750;28;20084;-86
2023/07/03 06:27:13;;;;;;;9.48;4.78;;;;;;;;;;5036444;28;20029;-85
2023/07/03 06:29:39;;;;;;;5.75;4.95;;;;;;;;;;5035613;28;20408;-86
2023/07/03 06:32:05;;;;;;;8.02;4.30;;;;;;;;;;5053887;28;20527;-85
2023/07/03 06:34:31;;;;;;;7.75;4.80;;;;;;;;;;5053629;28;20029;-85
2023/07/03 06:36:56;;;;;;;10.65;4.80;;;;;;;;;;5053812;28;20468;-86
2023/07/03 06:39:22;;;;;;;8.25;4.57;;;;;;;;;;5035428;28;20025;-85
2023/07/03 06:41:47;;;;;;;6.45;4.63;;;;;;;;;;5036858;28;20029;-85
2023/07/03 06:44:15;;;;;;;6.78;4.60;;;;;;;;;;5039735;28;20061;-84
2023/07/03 06:46:40;;;;;;;6.95;4.40;;;;;;;;;;5007593;28;20032;-83
2023/07/03 06:49:06;;;;;;;8.77;4.10;;;;;;;;;;5058152;28;20032;-84
2023/07/03 06:51:31;;;;;;;10.13;4.40;;;;;;;;;;5039683;28;20027;-83
2023/07/03 06:53:56;;;;;;;5.60;4.18;;;;;;;;;;5040246;28;20037;-84
2023/07/03 06:56:22;;;;;;;7.00;4.28;;;;;;;;;;5040537;28;20077;-92
2023/07/03 06:58:48;;;;;;;4.88;4.13;;;;;;;;;;5023470;28;20033;-87
2023/07/03 07:01:13;;;;;;;8.50;4.03;;;;;;;;;;5039342;28;20456;-84
2023/07/03 07:03:39;;;;;;;7.57;4.28;;;;;;;;;;5039366;28;20033;-84
2023/07/03 07:06:28;;;;;;;5.13;3.40;;;;;;;;;;5040181;28;20033;-84
2023/07/03 07:08:54;;;;;;;5.63;3.60;;;;;;;;;;5013298;28;20419;-84
2023/07/03 07:11:20;;;;;;;4.18;3.22;;;;;;;;;;5038990;28;20055;-83
2023/07/03 07:13:46;;;;;;;3.67;3.10;;;;;;;;;;5039822;28;20332;-84
2023/07/03 07:16:12;;;;;;;3.17;2.88;;;;;;;;;;5057550;28;20017;-84
2023/07/03 07:18:38;;;;;;;3.40;3.10;;;;;;;;;;5039801;28;20123;-83
2023/07/03 07:21:04;;;;;;;8.23;3.22;;;;;;;;;;5059036;28;20056;-83
2023/07/03 07:23:29;;;;;;;5.18;3.08;;;;;;;;;;5058798;28;20075;-83
2023/07/03 07:25:55;;;;;;;6.63;3.00;;;;;;;;;;5025828;28;20139;-85
2023/07/03 07:28:20;;;;;;;2.92;2.67;;;;;;;;;;5041220;28;20483;-86
2023/07/03 07:30:47;;;;;;;2.85;2.65;;;;;;;;;;5024536;28;20065;-88
2023/07/03 07:33:12;;;;;;;3.20;2.78;;;;;;;;;;5064837;28;20033;-85
2023/07/03 07:35:37;;;;;;;3.53;3.00;;;;;;;;;;5039573;28;20097;-86
2023/07/03 07:38:03;;;;;;;3.33;2.90;;;;;;;;;;5056582;28;20142;-85
2023/07/03 07:40:29;;;;;;;3.00;2.70;;;;;;;;;;5056361;28;20029;-86
2023/07/03 07:42:54;;;;;;;2.65;2.45;;;;;;;;;;5038782;28;20033;-85
2023/07/03 07:45:19;;;;;;;3.25;2.35;;;;;;;;;;5038918;28;20035;-82
2023/07/03 07:47:45;;;;;;;7.18;2.70;;;;;;;;;;5038793;28;20029;-82
2023/07/03 07:50:10;;;;;;;3.10;2.78;;;;;;;;;;5038129;28;20040;-85
2023/07/03 07:52:36;;;;;;;2.60;2.33;;;;;;;;;;5021037;28;20033;-83
2023/07/03 07:55:01;;;;;;;5.85;2.40;;;;;;;;;;5021264;28;20043;-79
2023/07/03 07:57:29;;;;;;;2.70;2.47;;;;;;;;;;5038688;28;20353;-79
2023/07/03 07:59:55;;;;;;;4.87;2.60;;;;;;;;;;5055795;28;20116;-79
2023/07/03 08:02:20;;;;;;;2.45;2.25;;;;;;;;;;5056683;28;20061;-78
2023/07/03 08:04:46;;;;;;;2.75;2.50;;;;;;;;;;5055749;28;20422;-78
2023/07/03 08:07:11;;;;;;;2.53;2.33;;;;;;;;;;5037818;28;20029;-78
2023/07/03 08:09:37;;;;;;;2.17;2.03;;;;;;;;;;5057273;28;20024;-79
2023/07/03 08:12:03;;;;;;;3.25;2.40;;;;;;;;;;5037989;28;20032;-79
2023/07/03 08:14:28;;;;;;;2.58;2.38;;;;;;;;;;5037725;28;20448;-80
2023/07/03 08:16:54;;;;;;;2.40;2.20;;;;;;;;;;5036406;28;20596;-80
2023/07/03 08:19:19;;;;;;;6.40;2.25;;;;;;;;;;5053515;28;20029;-80
2023/07/03 08:21:50;;;;;;;2.35;2.20;;;;;;;;;;5035605;28;20357;-80
2023/07/03 08:24:17;;;;;;;3.40;2.22;;;;;;;;;;5035807;28;20025;-79
2023/07/03 08:26:45;;;;;;;2.35;2.15;;;;;;;;;;5053318;28;20032;-77
2023/07/03 08:29:14;;;;;;;3.13;2.40;;;;;;;;;;5019908;28;20048;-79
2023/07/03 08:31:39;;;;;;;5.88;2.45;;;;;;;;;;5036716;28;20095;-79
2023/07/03 08:34:05;;;;;;;5.65;2.25;;;;;;;;;;5036942;28;20049;-80
2023/07/03 08:36:30;;;;;;;6.97;2.30;;;;;;;;;;5053517;28;20025;-77
2023/07/03 08:38:55;;;;;;;3.28;2.40;;;;;;;;;;5053979;28;20033;-78
2023/07/03 08:41:21;;;;;;;3.25;2.25;;;;;;;;;;5052270;28;20139;-78
2023/07/03 08:43:48;;;;;;;3.25;2.20;;;;;;;;;;5018756;28;20131;-78
2023/07/03 08:46:22;;;;;;;4.82;2.20;;;;;;;;;;5035421;28;20033;-79
2023/07/03 08:48:48;;;;;;;3.83;2.50;;;;;;;;;;5035647;28;20047;-78
2023/07/03 08:51:15;;;;;;;2.55;2.30;;;;;;;;;;5001763;28;20047;-79
2023/07/03 08:53:43;;;;;;;3.38;2.30;;;;;;;;;;5019064;28;20029;-78
2023/07/03 08:56:12;;;;;;;3.03;2.17;;;;;;;;;;5017673;28;20049;-78
2023/07/03 08:58:37;;;;;;;7.25;2.28;;;;;;;;;;5053090;28;20041;-78
2023/07/03 09:01:04;;;;;;;4.35;2.15;;;;;;;;;;5018019;28;20506;-79
2023/07/03 09:04:27;;;;;;;3.58;2.30;;;;;;;;;;5051679;28;20033;-76
2023/07/03 09:06:56;;;;;;;3.90;2.08;;;;;;;;;;4971536;28;20050;-79
2023/07/03 09:10:04;;;;;;;2.35;2.15;;;;;;;;;;4955408;28;20057;-80
2023/07/03 09:12:42;;;;;;;2.85;2.10;;;;;;;;;;5028245;28;20095;-80
2023/07/03 09:15:39;;;;;;;7.13;2.10;;;;;;;;;;5035019;28;20049;-81
2023/07/03 09:18:10;;;;;;;2.90;2.70;;;;;;;;;;5035090;28;20336;-80
2023/07/03 09:20:35;;;;;;;3.08;2.20;;;;;;;;;;5034671;28;20119;-80
2023/07/03 09:23:08;;;;;;;2.78;2.38;;;;;;;;;;5034922;28;20140;-81
2023/07/03 09:25:51;;;;;;;3.05;2.20;;;;;;;;;;5035755;28;20404;-83
2023/07/03 09:28:17;;;;;;;3.10;2.25;;;;;;;;;;5019390;28;20035;-81
2023/07/03 09:30:42;;;;;;;5.07;2.30;;;;;;;;;;5035829;28;20441;-81
2023/07/03 09:33:08;;;;;;;2.40;2.20;;;;;;;;;;5052670;28;20081;-79
2023/07/03 09:35:35;;;;;;;5.03;2.30;;;;;;;;;;5018552;28;20037;-78
2023/07/03 09:38:01;;;;;;;4.47;2.50;;;;;;;;;;5018911;28;20415;-81
2023/07/03 09:40:35;;;;;;;2.90;2.60;;;;;;;;;;5053498;28;20024;-80
2023/07/03 09:43:01;;;;;;;3.35;2.55;;;;;;;;;;5021050;28;20029;-78
2023/07/03 09:45:32;;;;;;;3.08;2.78;;;;;;;;;;5053696;28;20467;-78
2023/07/03 09:47:58;;;;;;;4.53;2.42;;;;;;;;;;5053505;28;20170;-79
2023/07/03 09:50:26;;;;;;;2.78;2.42;;;;;;;;;;5035342;28;20029;-79
2023/07/03 09:52:54;;;;;;;6.45;2.80;;;;;;;;;;5019566;28;20029;-79
2023/07/03 09:55:21;;;;;;;4.22;2.75;;;;;;;;;;5035994;28;20183;-79
2023/07/03 09:57:47;;;;;;;7.88;3.17;;;;;;;;;;5053624;28;20033;-79
2023/07/03 10:00:24;;;;;;;4.03;2.97;;;;;;;;;;5053286;28;20036;-80
2023/07/03 10:02:54;;;;;;;5.43;2.80;;;;;;;;;;5034665;28;20025;-79
2023/07/03 10:05:31;;;;;;;5.93;2.70;;;;;;;;;;5017372;28;20991;-77
2023/07/03 10:08:00;;;;;;;3.07;2.60;;;;;;;;;;5018961;28;20044;-77
2023/07/03 10:10:28;;;;;;;6.80;3.03;;;;;;;;;;5017804;28;20132;-79
2023/07/03 10:13:16;;;;;;;5.33;2.90;;;;;;;;;;5018584;28;20049;-79
2023/07/03 10:15:41;;;;;;;5.37;2.70;;;;;;;;;;5054774;28;20029;-78
2023/07/03 10:18:07;;;;;;;9.68;3.15;;;;;;;;;;5024603;28;20419;-79
2023/07/03 10:20:35;;;;;;;3.75;3.03;;;;;;;;;;5058891;28;20033;-78
2023/07/03 10:23:02;;;;;;;4.60;3.17;;;;;;;;;;5025219;28;20422;-79
2023/07/03 10:25:31;;;;;;;4.80;2.80;;;;;;;;;;5025103;28;20082;-80
2023/07/03 10:27:58;;;;;;;5.18;2.80;;;;;;;;;;5030356;28;20033;-78
2023/07/03 10:30:24;;;;;;;3.70;3.10;;;;;;;;;;5032418;28;20056;-79
2023/07/03 10:32:51;;;;;;;5.03;3.20;;;;;;;;;;5029891;28;20025;-79
2023/07/03 10:35:23;;;;;;;3.97;3.40;;;;;;;;;;5029413;28;20352;-79
2023/07/03 10:37:59;;;;;;;5.13;3.30;;;;;;;;;;5046137;28;20029;-79
2023/07/03 10:40:35;;;;;;;3.28;2.97;;;;;;;;;;5047195;28;20025;-79
2023/07/03 10:43:03;;;;;;;3.08;2.78;;;;;;;;;;5029371;28;20067;-79
2023/07/03 10:45:30;;;;;;;;;;;;;;;;;;5045362;28;20029;-79
2023/07/03 10:48:06;;;;;;;5.93;3.20;;;;;;;;;;5045252;28;19943;-78
2023/07/03 10:50:37;;;;;;;4.40;2.90;;;;;;;;;;5030254;28;20120;-79
2023/07/03 10:53:44;;;;;;;3.08;2.83;;;;;;;;;;5064170;28;20032;-79
2023/07/03 10:56:42;;;;;;;5.97;2.95;;;;;;;;;;5018573;28;20132;-79
2023/07/03 10:59:13;;;;;;;5.38;3.25;;;;;;;;;;5046667;28;20468;-79
2023/07/03 11:02:02;;;;;;;4.63;3.30;;;;;;;;;;5062217;28;20033;-80
2023/07/03 11:04:52;;;;;;;3.72;3.33;;;;;;;;;;5043229;28;20040;-79
2023/07/03 11:07:38;;;;;;;4.03;3.08;;;;;;;;;;5062310;28;20033;-79
2023/07/03 11:10:35;;;;;;;4.13;3.55;;;;;;;;;;5045548;28;20029;-78
2023/07/03 11:13:11;;;;;;;5.70;3.78;;;;;;;;;;4994413;28;20369;-79
2023/07/03 11:15:43;;;;;;;4.72;3.40;;;;;;;;;;5044847;28;20044;-79
2023/07/03 11:18:19;;;;;;;5.10;3.60;;;;;;;;;;5061760;28;20029;-79
2023/07/03 11:20:51;;;;;;;10.02;3.80;;;;;;;;;;5044420;28;20035;-79
2023/07/03 11:23:16;;;;;;;6.43;3.60;;;;;;;;;;5043950;28;20025;-80
2023/07/03 11:26:07;;;;;;;5.28;3.78;;;;;;;;;;5062361;28;20028;-79
2023/07/03 11:28:35;;;;;;;6.22;3.92;;;;;;;;;;5045256;28;20176;-78
2023/07/03 11:31:01;;;;;;;5.13;3.97;;;;;;;;;;5043469;28;20353;-78
2023/07/03 11:33:29;;;;;;;4.38;3.97;;;;;;;;;;5013166;28;20028;-78
2023/07/03 11:35:55;;;;;;;5.15;4.20;;;;;;;;;;5026607;28;20029;-79
2023/07/03 11:38:21;;;;;;;4.07;3.78;;;;;;;;;;5061237;28;20127;-76
2023/07/03 11:40:55;;;;;;;6.50;3.90;;;;;;;;;;5043576;28;20075;-79
2023/07/03 11:43:23;;;;;;;7.65;4.07;;;;;;;;;;5043429;28;20068;-78
2023/07/03 11:46:10;;;;;;;5.63;3.95;;;;;;;;;;5026554;28;20041;-78
2023/07/03 11:48:36;;;;;;;6.72;4.47;;;;;;;;;;5027280;28;20039;-78
2023/07/03 11:51:06;;;;;;;7.13;4.05;;;;;;;;;;5062035;28;20021;-79
2023/07/03 11:53:36;;;;;;;5.53;4.13;;;;;;;;;;5028265;28;20028;-79
2023/07/03 11:56:06;;;;;;;4.93;4.05;;;;;;;;;;5040058;28;20037;-78
2023/07/03 11:58:33;;;;;;;4.65;3.85;;;;;;;;;;5040955;28;20060;-77
2023/07/03 12:01:20;;;;;;;5.05;3.95;;;;;;;;;;5042486;28;20025;-78
2023/07/03 12:04:03;;;;;;;6.13;3.88;;;;;;;;;;5042057;28;20209;-76
2023/07/03 12:06:40;;;;;;;5.82;4.03;;;;;;;;;;5040210;28;20112;-77
2023/07/03 12:09:24;;;;;;;10.98;3.97;;;;;;;;;;5042755;28;20040;-76
2023/07/03 12:11:59;;;;;;;6.78;4.70;;;;;;;;;;5042772;28;20021;-78
2023/07/03 12:14:40;;;;;;;9.07;4.60;;;;;;;;;;5039652;28;20342;-79
2023/07/03 12:17:25;;;;;;;5.80;4.47;;;;;;;;;;5041160;28;20441;-80
2023/07/03 12:20:14;;;;;;;5.45;4.15;;;;;;;;;;5022075;28;20041;-82
2023/07/03 12:22:50;;;;;;;6.13;4.70;;;;;;;;;;5039057;28;20025;-81
2023/07/03 12:25:23;;;;;;;6.53;4.50;;;;;;;;;;5005320;28;20114;-81
2023/07/03 12:27:49;;;;;;;8.15;4.53;;;;;;;;;;5022115;28;20029;-82
2023/07/03 12:30:28;;;;;;;5.18;4.68;;;;;;;;;;5037464;28;20037;-78
2023/07/03 12:32:55;;;;;;;18.70;12.55;;;;;;;;;;5021862;28;20026;-78
2023/07/03 12:35:29;;;;;;;13.95;9.93;;;;;;;;;;5023213;28;20463;-80
2023/07/03 12:37:57;;;;;;;10.38;6.30;;;;;;;;;;5039393;28;20025;-79
2023/07/03 12:40:23;;;;;;;10.02;8.07;;;;;;;;;;5022268;28;20526;-79
2023/07/03 12:42:50;;;;;;;9.02;5.20;;;;;;;;;;5034020;28;20026;-79
2023/07/03 12:45:18;;;;;;;6.38;5.25;;;;;;;;;;5001598;28;20041;-81
2023/07/03 12:47:45;;;;;;;12.15;6.78;;;;;;;;;;5033975;28;20116;-80
2023/07/03 12:50:18;;;;;;;6.70;5.82;;;;;;;;;;5034051;28;20040;-80
2023/07/03 12:52:44;;;;;;;11.82;9.88;;;;;;;;;;5017497;28;20415;-81
2023/07/03 12:55:10;;;;;;;9.93;8.90;;;;;;;;;;5033786;28;20049;-84
2023/07/03 12:57:37;;;;;;;23.52;19.48;;;;;;;;;;5017423;28;20056;-78
2023/07/03 13:00:06;;;;;;;11.10;9.95;;;;;;;;;;5001575;28;20033;-79
2023/07/03 13:02:31;;;;;;;5.85;4.32;;;;;;;;;;5033875;28;20037;-80
2023/07/03 13:04:58;;;;;;;106.15;82.90;;;;;;;;;;5034143;28;20032;-81
2023/07/03 13:07:24;;;;;;;12.57;11.25;;;;;;;;;;5017688;28;20067;-82
2023/07/03 13:09:52;;;;;;;19.15;16.30;;;;;;;;;;5017331;28;20123;-83
2023/07/03 13:12:25;;;;;;;27.45;21.13;;;;;;;;;;5034159;28;20025;-83
2023/07/03 13:15:10;;;;;;;10.80;9.55;;;;;;;;;;5033704;28;20029;-82
2023/07/03 13:17:37;;;;;;;15.77;13.90;;;;;;;;;;5035121;28;20080;-80
2023/07/03 13:20:26;;;;;;;48.65;40.17;;;;;;;;;;5033365;28;20029;-80
2023/07/03 13:22:58;;;;;;;11.20;9.43;;;;;;;;;;5034352;28;20029;-85
2023/07/03 13:25:33;;;;;;;17.67;12.57;;;;;;;;;;5000490;28;20068;-84
2023/07/03 13:28:00;;;;;;;22.63;18.58;;;;;;;;;;5033445;28;20114;-87
2023/07/03 13:30:28;;;;;;;15.43;11.57;;;;;;;;;;5033951;28;20055;-88
2023/07/03 13:32:56;;;;;;;12.82;10.20;;;;;;;;;;5034531;28;20025;-90
2023/07/03 13:35:42;;;;;;;7.28;6.13;;;;;;;;;;5018899;28;20111;-87
2023/07/03 13:38:29;;;;;;;12.57;10.32;;;;;;;;;;5043144;28;20031;-86
2023/07/03 13:40:56;;;;;;;7.35;4.65;;;;;;;;;;5050362;28;20033;-87
2023/07/03 13:43:25;;;;;;;7.10;5.43;;;;;;;;;;5022206;28;20095;-85
2023/07/03 13:45:52;;;;;;;6.53;3.50;;;;;;;;;;5037359;28;20021;-83
2023/07/03 13:48:18;;;;;;;3.35;3.05;;;;;;;;;;5032828;28;20413;-83
2023/07/03 13:50:44;;;;;;;4.60;3.72;;;;;;;;;;5032810;28;20053;-83
2023/07/03 13:53:09;;;;;;;3.45;3.15;;;;;;;;;;5033046;28;20028;-83
2023/07/03 13:55:35;;;;;;;3.95;3.53;;;;;;;;;;5032489;28;20388;-83
2023/07/03 13:58:00;;;;;;;5.70;3.33;;;;;;;;;;5033220;28;20029;-82
2023/07/03 14:00:26;;;;;;;3.45;3.15;;;;;;;;;;5016414;28;20029;-83
2023/07/03 14:02:52;;;;;;;3.97;3.17;;;;;;;;;;5016710;28;20392;-83
2023/07/03 14:05:19;;;;;;;4.53;3.20;;;;;;;;;;5016458;28;20026;-83
2023/07/03 14:07:44;;;;;;;4.35;3.42;;;;;;;;;;5032739;28;20124;-82
2023/07/03 14:10:10;;;;;;;3.50;3.17;;;;;;;;;;5016128;28;20128;-82
2023/07/03 14:12:35;;;;;;;4.05;3.28;;;;;;;;;;5016575;28;20061;-83
2023/07/03 14:15:27;;;;;;;5.65;3.15;;;;;;;;;;5032978;28;20079;-83
2023/07/03 14:17:52;;;;;;;3.70;3.10;;;;;;;;;;5032917;28;20040;-83
2023/07/03 14:20:18;;;;;;;9.60;3.70;;;;;;;;;;5033413;28;20034;-82
2023/07/03 14:22:43;;;;;;;5.38;3.30;;;;;;;;;;5000137;28;20461;-83
2023/07/03 14:25:09;;;;;;;5.80;3.40;;;;;;;;;;5016048;28;20039;-82
2023/07/03 14:27:36;;;;;;;4.38;3.20;;;;;;;;;;5016241;28;20037;-82
2023/07/03 14:30:02;;;;;;;3.50;3.20;;;;;;;;;;5032566;28;20033;-83
2023/07/03 14:32:27;;;;;;;7.32;3.20;;;;;;;;;;5032747;28;20040;-83
2023/07/03 14:34:53;;;;;;;3.70;3.30;;;;;;;;;;5016532;28;20025;-83
2023/07/03 14:37:18;;;;;;;4.57;3.70;;;;;;;;;;5032711;28;20029;-84
2023/07/03 14:39:43;;;;;;;4.13;3.45;;;;;;;;;;5032967;28;20354;-83